createdAt,value
2023-05-09T00:01:45.266Z,6.88
2023-05-09T00:04:11.797Z,7.10
2023-05-09T00:06:38.399Z,6.57
2023-05-09T00:09:05.159Z,8.02
2023-05-09T00:11:31.600Z,6.70
2023-05-09T00:13:58.570Z,6.22
2023-05-09T00:16:24.988Z,6.50
2023-05-09T00:18:51.418Z,6.90
2023-05-09T00:21:17.799Z,7.68
2023-05-09T00:23:44.143Z,8.27
2023-05-09T00:26:10.614Z,8.13
2023-05-09T00:28:37.409Z,8.10
2023-05-09T00:31:04.269Z,9.63
2023-05-09T00:33:30.602Z,9.13
2023-05-09T00:35:56.962Z,7.88
2023-05-09T00:38:23.542Z,7.85
2023-05-09T00:40:50.011Z,7.07
2023-05-09T00:43:16.850Z,8.07
2023-05-09T00:45:46.965Z,6.97
2023-05-09T00:48:14.669Z,11.07
2023-05-09T00:50:41.254Z,11.00
2023-05-09T00:53:08.297Z,12.50
2023-05-09T00:55:34.665Z,10.63
2023-05-09T00:58:01.359Z,7.15
2023-05-09T01:00:28.000Z,7.05
2023-05-09T01:02:55.274Z,8.00
2023-05-09T01:05:23.587Z,7.75
2023-05-09T01:07:52.535Z,7.18
2023-05-09T01:10:34.288Z,6.68
2023-05-09T01:13:19.826Z,6.45
2023-05-09T01:15:54.328Z,6.05
2023-05-09T01:18:21.614Z,6.70
2023-05-09T01:20:59.738Z,6.05
2023-05-09T01:23:36.167Z,6.38
2023-05-09T01:26:03.590Z,5.75
2023-05-09T01:28:48.387Z,5.57
2023-05-09T01:31:16.000Z,5.55
2023-05-09T01:33:42.747Z,5.00
2023-05-09T01:36:12.138Z,4.70
2023-05-09T01:38:38.981Z,4.70
2023-05-09T01:41:06.736Z,5.03
2023-05-09T01:43:33.640Z,5.85
2023-05-09T01:46:00.859Z,5.30
2023-05-09T01:48:28.868Z,4.97
2023-05-09T01:50:55.684Z,4.93
2023-05-09T01:53:22.963Z,4.68
2023-05-09T01:55:49.990Z,5.05
2023-05-09T01:58:16.605Z,4.45
2023-05-09T02:00:43.941Z,4.40
2023-05-09T02:03:10.856Z,4.05
2023-05-09T02:05:37.620Z,4.63
2023-05-09T02:08:05.122Z,5.45
2023-05-09T02:10:31.703Z,5.63
2023-05-09T02:12:58.111Z,4.93
2023-05-09T02:15:24.696Z,4.45
2023-05-09T02:17:51.389Z,4.07
2023-05-09T02:20:17.875Z,4.25
2023-05-09T02:22:44.493Z,4.50
2023-05-09T02:25:12.032Z,4.82
2023-05-09T02:27:39.645Z,4.63
2023-05-09T02:30:08.680Z,3.72
2023-05-09T02:32:35.994Z,4.20
2023-05-09T02:35:04.045Z,3.90
2023-05-09T02:37:31.108Z,3.88
2023-05-09T02:39:58.275Z,3.53
2023-05-09T02:42:25.484Z,3.53
2023-05-09T02:44:54.627Z,3.42
2023-05-09T02:47:21.445Z,3.00
2023-05-09T02:49:47.947Z,3.45
2023-05-09T02:52:14.364Z,2.95
2023-05-09T02:54:40.743Z,3.58
2023-05-09T02:57:07.060Z,3.20
2023-05-09T02:59:33.489Z,3.05
2023-05-09T03:01:59.825Z,3.25
2023-05-09T03:04:26.243Z,3.67
2023-05-09T03:06:52.631Z,3.10
2023-05-09T03:09:18.954Z,2.97
2023-05-09T03:11:45.322Z,2.72
2023-05-09T03:14:13.230Z,2.72
2023-05-09T03:16:39.655Z,2.65
2023-05-09T03:19:06.096Z,2.50
2023-05-09T03:21:33.010Z,2.65
2023-05-09T03:23:59.476Z,2.10
2023-05-09T03:26:26.544Z,2.78
2023-05-09T03:28:52.912Z,2.40
2023-05-09T03:31:19.239Z,2.05
2023-05-09T03:33:45.638Z,1.75
2023-05-09T03:36:12.021Z,2.30
2023-05-09T03:38:38.355Z,1.75
2023-05-09T03:41:04.680Z,2.22
2023-05-09T03:43:31.059Z,2.20
2023-05-09T03:45:57.383Z,2.00
2023-05-09T03:48:23.706Z,2.17
2023-05-09T03:50:50.171Z,1.85
2023-05-09T03:56:38.189Z,2.13
2023-05-09T03:59:04.542Z,2.47
2023-05-09T04:01:30.973Z,2.55
2023-05-09T04:04:00.329Z,3.10
2023-05-09T04:06:26.758Z,3.03
2023-05-09T04:08:53.093Z,2.70
2023-05-09T04:11:19.449Z,3.10
2023-05-09T04:13:45.762Z,3.25
2023-05-09T04:16:12.080Z,3.50
2023-05-09T04:18:42.124Z,3.10
2023-05-09T04:21:08.751Z,2.70
2023-05-09T04:23:35.079Z,3.40
2023-05-09T04:26:01.517Z,3.22
2023-05-09T04:28:27.866Z,3.58
2023-05-09T04:30:54.286Z,3.20
2023-05-09T04:33:21.325Z,3.63
2023-05-09T04:35:48.664Z,3.63
2023-05-09T04:38:14.976Z,4.25
2023-05-09T04:40:41.363Z,4.63
2023-05-09T04:43:07.930Z,5.03
2023-05-09T04:45:34.292Z,6.43
2023-05-09T04:48:00.831Z,6.78
2023-05-09T04:50:27.325Z,6.38
2023-05-09T04:52:53.641Z,7.13
2023-05-09T04:55:20.004Z,7.82
2023-05-09T04:57:46.399Z,6.97
2023-05-09T05:00:13.090Z,7.45
2023-05-09T05:02:39.499Z,7.57
2023-05-09T05:05:11.545Z,7.15
2023-05-09T05:07:38.267Z,6.93
2023-05-09T05:10:06.574Z,6.50
2023-05-09T05:12:33.055Z,7.50
2023-05-09T05:14:59.364Z,6.63
2023-05-09T05:17:25.812Z,6.50
2023-05-09T05:19:52.150Z,6.55
2023-05-09T05:22:18.599Z,6.60
2023-05-09T05:24:44.949Z,6.60
2023-05-09T05:27:11.328Z,6.82
2023-05-09T05:29:37.763Z,6.53
2023-05-09T05:32:04.857Z,6.30
2023-05-09T05:34:31.241Z,6.32
2023-05-09T05:36:57.633Z,6.00
2023-05-09T05:39:23.977Z,6.47
2023-05-09T05:41:51.944Z,6.43
2023-05-09T05:44:18.304Z,6.47
2023-05-09T05:46:44.681Z,5.60
2023-05-09T05:49:11.028Z,6.18
2023-05-09T05:51:37.351Z,5.60
2023-05-09T05:54:04.235Z,5.18
2023-05-09T05:56:30.923Z,5.97
2023-05-09T05:58:57.268Z,5.07
2023-05-09T06:01:23.621Z,5.63
2023-05-09T06:03:54.663Z,5.25
2023-05-09T06:06:24.016Z,5.03
2023-05-09T06:08:50.434Z,5.50
2023-05-09T06:11:16.932Z,5.35
2023-05-09T06:13:43.457Z,4.80
2023-05-09T06:16:18.740Z,5.63
2023-05-09T06:18:46.225Z,5.10
2023-05-09T06:21:12.620Z,4.53
2023-05-09T06:23:44.683Z,4.53
2023-05-09T06:26:17.240Z,4.13
2023-05-09T06:28:43.615Z,3.70
2023-05-09T06:31:10.045Z,3.92
2023-05-09T06:33:36.505Z,4.45
2023-05-09T06:36:03.147Z,4.03
2023-05-09T06:38:29.497Z,3.90
2023-05-09T06:40:55.916Z,4.28
2023-05-09T06:43:22.242Z,3.83
2023-05-09T06:45:48.598Z,3.10
2023-05-09T06:48:14.971Z,2.45
2023-05-09T06:50:41.343Z,2.75
2023-05-09T06:53:07.743Z,2.65
2023-05-09T06:55:34.149Z,3.13
2023-05-09T06:58:00.531Z,4.03
2023-05-09T07:00:27.059Z,3.50
2023-05-09T07:02:53.580Z,8.32
2023-05-09T07:05:20.530Z,5.00
2023-05-09T07:07:46.884Z,7.35
2023-05-09T07:10:13.430Z,5.70
2023-05-09T07:12:40.163Z,13.52
2023-05-09T07:15:06.914Z,13.45
2023-05-09T07:17:33.365Z,7.90
2023-05-09T07:19:59.900Z,15.07
2023-05-09T07:22:26.402Z,13.25
2023-05-09T07:24:53.159Z,12.50
2023-05-09T07:27:19.534Z,12.77
2023-05-09T07:29:45.916Z,7.70
2023-05-09T07:32:12.369Z,11.07
2023-05-09T07:34:38.788Z,7.80
2023-05-09T07:37:05.291Z,6.18
2023-05-09T07:39:31.616Z,4.57
2023-05-09T07:41:57.994Z,3.03
2023-05-09T07:44:24.340Z,3.42
2023-05-09T07:46:50.808Z,2.50
2023-05-09T07:49:17.155Z,3.22
2023-05-09T07:51:43.501Z,2.97
2023-05-09T07:54:10.262Z,2.53
2023-05-09T07:56:36.647Z,3.20
2023-05-09T07:59:03.375Z,2.25
2023-05-09T08:01:29.773Z,2.20
2023-05-09T08:03:56.171Z,1.58
2023-05-09T08:06:22.698Z,2.08
2023-05-09T08:08:49.325Z,1.50
2023-05-09T08:11:15.752Z,1.33
2023-05-09T08:13:42.121Z,1.30
2023-05-09T08:16:08.500Z,1.40
2023-05-09T08:18:34.859Z,1.60
2023-05-09T08:21:01.228Z,0.88
2023-05-09T08:23:27.983Z,0.95
2023-05-09T08:25:54.721Z,0.93
2023-05-09T08:28:24.130Z,0.90
2023-05-09T08:30:51.373Z,1.00
2023-05-09T08:33:17.700Z,1.48
2023-05-09T08:35:44.241Z,0.80
2023-05-09T08:38:10.805Z,0.80
2023-05-09T08:40:37.874Z,0.70
2023-05-09T08:43:07.685Z,0.88
2023-05-09T08:45:45.422Z,0.77
2023-05-09T08:48:12.278Z,1.80
2023-05-09T08:50:38.690Z,2.30
2023-05-09T08:53:05.339Z,1.20
2023-05-09T08:55:32.290Z,1.10
2023-05-09T08:57:58.899Z,0.93
2023-05-09T09:00:25.619Z,0.68
2023-05-09T09:02:53.155Z,0.65
2023-05-09T09:05:40.153Z,0.70
2023-05-09T09:08:07.291Z,0.88
2023-05-09T09:13:00.626Z,0.73
2023-05-09T09:15:34.291Z,0.90
2023-05-09T09:18:07.248Z,0.63
2023-05-09T09:20:34.628Z,0.40
2023-05-09T09:23:03.766Z,0.40
2023-05-09T09:25:30.184Z,0.13
2023-05-09T09:27:56.557Z,0.20
2023-05-09T09:30:26.637Z,0.20
2023-05-09T09:32:53.067Z,0.20
2023-05-09T09:35:20.207Z,0.10
2023-05-09T09:37:46.608Z,0.10
2023-05-09T09:40:14.427Z,0.20
2023-05-09T09:42:44.586Z,0.10
2023-05-09T09:45:12.311Z,0.10
2023-05-09T09:47:38.694Z,0.10
2023-05-09T09:50:15.294Z,0.10
2023-05-09T09:52:44.763Z,0.00
2023-05-09T09:55:11.443Z,0.10
2023-05-09T09:57:39.795Z,0.00
2023-05-09T10:00:06.629Z,0.00
2023-05-09T10:02:33.232Z,0.00
2023-05-09T10:05:06.548Z,0.10
2023-05-09T10:07:36.078Z,0.10
2023-05-09T10:10:05.923Z,0.20
2023-05-09T10:12:34.436Z,0.10
2023-05-09T10:15:02.093Z,0.10
2023-05-09T10:17:29.500Z,0.20
2023-05-09T10:19:56.007Z,0.20
2023-05-09T10:22:23.657Z,0.10
2023-05-09T10:24:50.060Z,0.20
2023-05-09T10:27:19.302Z,0.20
2023-05-09T10:29:48.731Z,0.10
2023-05-09T10:32:20.586Z,0.10
2023-05-09T10:34:48.109Z,0.10
2023-05-09T10:37:15.668Z,0.10
2023-05-09T10:39:42.229Z,0.10
2023-05-09T10:42:08.584Z,0.20
2023-05-09T10:44:35.095Z,0.20
2023-05-09T10:47:02.202Z,0.10
2023-05-09T10:49:28.813Z,0.10
2023-05-09T10:51:55.170Z,0.20
2023-05-09T10:54:30.733Z,0.00
2023-05-09T10:56:57.960Z,0.10
2023-05-09T10:59:37.792Z,0.00
2023-05-09T11:02:05.005Z,0.10
2023-05-09T11:04:34.544Z,0.40
2023-05-09T11:07:01.061Z,0.20
2023-05-09T11:09:41.443Z,0.20
2023-05-09T11:12:09.720Z,0.50
2023-05-09T11:14:36.077Z,0.30
2023-05-09T11:17:03.844Z,0.20
2023-05-09T11:19:59.479Z,0.20
2023-05-09T11:22:27.888Z,0.88
2023-05-09T11:25:10.478Z,0.60
2023-05-09T11:27:38.070Z,0.28
2023-05-09T11:30:06.280Z,0.60
2023-05-09T11:32:33.195Z,0.38
2023-05-09T11:35:07.395Z,0.22
2023-05-09T11:37:33.829Z,3.15
2023-05-09T11:40:01.393Z,2.33
2023-05-09T11:42:28.496Z,1.70
2023-05-09T11:44:55.893Z,1.10
2023-05-09T11:49:49.589Z,0.77
2023-05-09T11:54:42.753Z,1.17
2023-05-09T11:57:09.440Z,1.00
2023-05-09T11:59:36.575Z,2.42
2023-05-09T12:02:06.144Z,2.90
2023-05-09T12:04:32.989Z,4.32
2023-05-09T12:06:59.896Z,1.48
2023-05-09T12:09:30.473Z,1.20
2023-05-09T12:11:56.812Z,5.00
2023-05-09T12:14:30.324Z,0.40
2023-05-09T12:16:56.856Z,0.75
2023-05-09T12:19:25.018Z,0.85
2023-05-09T12:21:55.562Z,3.47
2023-05-09T12:24:22.003Z,0.47
2023-05-09T12:26:48.972Z,0.30
2023-05-09T12:29:15.514Z,0.82
2023-05-09T12:31:42.139Z,1.48
2023-05-09T12:34:09.864Z,0.80
2023-05-09T12:36:37.156Z,0.60
2023-05-09T12:39:09.458Z,0.98
2023-05-09T12:41:53.633Z,0.65
2023-05-09T12:44:29.312Z,0.90
2023-05-09T12:46:57.171Z,0.35
2023-05-09T12:49:23.723Z,0.45
2023-05-09T12:51:50.671Z,0.57
2023-05-09T12:54:21.749Z,0.30
2023-05-09T12:56:48.327Z,0.40
2023-05-09T12:59:20.554Z,0.47
2023-05-09T13:01:51.431Z,0.50
2023-05-09T13:04:19.563Z,0.80
2023-05-09T13:06:53.436Z,0.30
2023-05-09T13:09:19.882Z,0.63
2023-05-09T13:11:47.902Z,0.25
2023-05-09T13:14:14.798Z,0.50
2023-05-09T13:21:34.285Z,0.30
2023-05-09T13:24:00.834Z,0.40
2023-05-09T13:28:53.840Z,0.60
2023-05-09T13:31:20.337Z,0.40
2023-05-09T13:36:14.085Z,0.35
2023-05-09T13:38:40.893Z,0.40
2023-05-09T13:43:34.121Z,0.32
2023-05-09T13:46:00.534Z,0.70
2023-05-09T13:48:27.015Z,1.27
2023-05-09T13:50:53.557Z,0.73
2023-05-09T13:53:20.021Z,0.40
2023-05-09T13:55:47.168Z,0.40
2023-05-09T13:58:13.515Z,2.25
2023-05-09T14:00:39.909Z,0.52
2023-05-09T14:03:06.346Z,1.48
2023-05-09T14:05:33.125Z,0.60
2023-05-09T14:07:59.551Z,0.40
2023-05-09T14:10:27.076Z,2.30
2023-05-09T14:12:54.105Z,0.50
2023-05-09T14:15:20.490Z,3.92
2023-05-09T14:17:47.076Z,6.88
2023-05-09T14:20:15.744Z,7.90
2023-05-09T14:22:42.697Z,9.82
2023-05-09T14:25:09.131Z,4.65
2023-05-09T14:27:38.614Z,3.38
2023-05-09T14:30:05.427Z,1.40
2023-05-09T14:32:31.751Z,1.38
2023-05-09T14:34:58.106Z,1.30
2023-05-09T14:37:24.479Z,3.00
2023-05-09T14:39:50.900Z,3.78
2023-05-09T14:42:17.332Z,3.88
2023-05-09T14:44:45.340Z,2.20
2023-05-09T14:47:12.138Z,3.00
2023-05-09T14:49:41.482Z,10.10
2023-05-09T14:52:07.938Z,1.63
2023-05-09T14:54:34.800Z,2.05
2023-05-09T14:57:04.552Z,3.05
2023-05-09T14:59:30.957Z,1.85
2023-05-09T15:01:57.418Z,1.73
2023-05-09T15:04:28.150Z,1.50
2023-05-09T15:06:54.634Z,1.70
2023-05-09T15:09:21.498Z,1.38
2023-05-09T15:11:49.124Z,1.25
2023-05-09T15:14:16.920Z,1.40
2023-05-09T15:16:43.642Z,1.20
2023-05-09T15:19:10.146Z,1.42
2023-05-09T15:21:36.498Z,1.60
2023-05-09T15:24:03.560Z,1.60
2023-05-09T15:26:30.303Z,1.80
2023-05-09T15:28:56.701Z,1.65
2023-05-09T15:31:24.051Z,1.42
2023-05-09T15:33:50.607Z,1.80
2023-05-09T15:36:17.026Z,1.60
2023-05-09T15:38:48.282Z,1.15
2023-05-09T15:41:15.390Z,1.45
2023-05-09T15:43:41.750Z,1.38
2023-05-09T15:46:08.136Z,1.25
2023-05-09T15:48:34.561Z,1.20
2023-05-09T15:51:02.464Z,1.80
2023-05-09T15:53:29.360Z,1.17
2023-05-09T15:55:56.879Z,1.40
2023-05-09T15:58:23.530Z,1.45
2023-05-09T16:00:50.026Z,0.70
2023-05-09T16:03:16.843Z,0.57
2023-05-09T16:05:43.782Z,0.50
2023-05-09T16:08:10.160Z,0.50
2023-05-09T16:10:36.634Z,0.63
2023-05-09T16:13:03.271Z,0.70
2023-05-09T16:15:29.725Z,0.60
2023-05-09T16:17:56.409Z,0.57
2023-05-09T16:20:22.977Z,0.80
2023-05-09T16:22:49.348Z,0.70
2023-05-09T16:25:16.342Z,1.33
2023-05-09T16:27:42.680Z,1.30
2023-05-09T16:30:09.342Z,0.75
2023-05-09T16:32:35.800Z,2.95
2023-05-09T16:35:02.390Z,4.10
2023-05-09T16:37:29.798Z,2.05
2023-05-09T16:39:56.444Z,4.28
2023-05-09T16:42:22.831Z,2.85
2023-05-09T16:44:49.622Z,2.40
2023-05-09T16:47:16.137Z,2.13
2023-05-09T16:49:42.657Z,3.22
2023-05-09T16:52:09.426Z,3.05
2023-05-09T16:54:35.940Z,1.88
2023-05-09T16:57:03.231Z,2.35
2023-05-09T16:59:29.599Z,2.22
2023-05-09T17:01:57.641Z,3.30
2023-05-09T17:04:24.686Z,2.50
2023-05-09T17:06:51.800Z,1.80
2023-05-09T17:09:18.673Z,2.20
2023-05-09T17:11:45.004Z,1.67
2023-05-09T17:14:11.371Z,2.30
2023-05-09T17:16:38.206Z,1.85
2023-05-09T17:19:04.779Z,2.00
2023-05-09T17:21:32.111Z,3.75
2023-05-09T17:23:58.586Z,2.35
2023-05-09T17:26:25.825Z,2.03
2023-05-09T17:28:52.238Z,1.80
2023-05-09T17:31:18.624Z,2.28
2023-05-09T17:33:44.948Z,1.90
2023-05-09T17:36:14.284Z,1.70
2023-05-09T17:38:40.662Z,2.15
2023-05-09T17:41:07.138Z,2.80
2023-05-09T17:43:34.245Z,2.15
2023-05-09T17:46:00.720Z,1.60
2023-05-09T17:48:27.113Z,1.92
2023-05-09T17:50:54.321Z,2.13
2023-05-09T17:53:20.729Z,1.70
2023-05-09T17:55:47.057Z,3.00
2023-05-09T17:58:14.889Z,3.00
2023-05-09T18:03:07.949Z,3.67
2023-05-09T18:05:34.699Z,2.75
2023-05-09T18:08:01.439Z,3.30
2023-05-09T18:10:28.388Z,2.67
2023-05-09T18:12:54.948Z,2.23
2023-05-09T18:15:21.411Z,2.10
2023-05-09T18:17:49.263Z,3.60
2023-05-09T18:20:15.893Z,3.05
2023-05-09T18:22:42.408Z,2.42
2023-05-09T18:25:08.958Z,2.55
2023-05-09T18:27:35.290Z,2.63
2023-05-09T18:30:01.623Z,2.38
2023-05-09T18:32:29.829Z,3.35
2023-05-09T18:34:56.234Z,3.47
2023-05-09T18:37:22.898Z,4.40
2023-05-09T18:39:49.695Z,6.72
2023-05-09T18:42:16.500Z,7.38
2023-05-09T18:44:43.096Z,7.37
2023-05-09T18:47:09.586Z,6.97
2023-05-09T18:49:36.203Z,7.07
2023-05-09T18:52:03.350Z,7.07
2023-05-09T18:54:29.888Z,7.70
2023-05-09T18:56:56.238Z,6.85
2023-05-09T18:59:23.512Z,7.13
2023-05-09T19:01:50.032Z,6.68
2023-05-09T19:04:17.419Z,6.60
2023-05-09T19:06:44.135Z,6.80
2023-05-09T19:09:11.521Z,6.80
2023-05-09T19:11:37.984Z,6.43
2023-05-09T19:14:05.253Z,5.95
2023-05-09T19:16:31.795Z,6.20
2023-05-09T19:18:58.327Z,5.85
2023-05-09T19:21:25.497Z,5.28
2023-05-09T19:23:51.969Z,6.88
2023-05-09T19:26:19.099Z,5.70
2023-05-09T19:28:48.395Z,5.82
2023-05-09T19:31:15.307Z,5.93
2023-05-09T19:33:42.405Z,6.20
2023-05-09T19:36:08.798Z,6.15
2023-05-09T19:38:35.355Z,6.38
2023-05-09T19:41:02.047Z,7.50
2023-05-09T19:43:28.450Z,7.70
2023-05-09T19:45:54.783Z,6.80
2023-05-09T19:48:22.691Z,6.25
2023-05-09T19:50:49.063Z,6.30
2023-05-09T19:53:15.471Z,9.60
2023-05-09T19:55:43.773Z,8.18
2023-05-09T19:58:10.147Z,14.38
2023-05-09T20:00:38.786Z,20.60
2023-05-09T20:03:05.281Z,16.35
2023-05-09T20:05:31.922Z,29.27
2023-05-09T20:07:58.301Z,17.67
2023-05-09T20:10:24.865Z,25.50
2023-05-09T20:12:53.070Z,22.63
2023-05-09T20:15:19.515Z,28.17
2023-05-09T20:17:47.050Z,30.52
2023-05-09T20:20:13.693Z,28.13
2023-05-09T20:22:40.337Z,26.17
2023-05-09T20:25:06.996Z,17.15
2023-05-09T20:27:35.415Z,16.55
2023-05-09T20:30:03.175Z,20.02
2023-05-09T20:34:57.297Z,16.90
2023-05-09T20:37:23.827Z,17.67
2023-05-09T20:39:50.336Z,17.33
2023-05-09T20:42:16.797Z,15.70
2023-05-09T20:44:43.186Z,15.55
2023-05-09T20:47:09.586Z,14.23
2023-05-09T20:49:36.009Z,15.15
2023-05-09T20:52:02.417Z,13.20
2023-05-09T20:54:30.889Z,13.23
2023-05-09T20:56:57.335Z,13.40
2023-05-09T20:59:23.723Z,14.95
2023-05-09T21:01:52.174Z,15.15
2023-05-09T21:04:18.759Z,16.48
2023-05-09T21:06:45.205Z,14.57
2023-05-09T21:09:11.604Z,13.52
2023-05-09T21:11:39.602Z,15.65
2023-05-09T21:14:06.429Z,13.30
2023-05-09T21:16:33.032Z,12.30
2023-05-09T21:19:02.525Z,12.68
2023-05-09T21:21:31.468Z,10.90
2023-05-09T21:23:57.836Z,10.93
2023-05-09T21:26:24.260Z,10.77
2023-05-09T21:28:51.096Z,12.02
2023-05-09T21:31:17.512Z,11.68
2023-05-09T21:33:43.938Z,12.07
2023-05-09T21:36:11.015Z,13.63
2023-05-09T21:38:37.640Z,12.77
2023-05-09T21:41:04.174Z,12.35
2023-05-09T21:43:30.652Z,12.68
2023-05-09T21:45:57.040Z,12.27
2023-05-09T21:48:23.534Z,13.40
2023-05-09T21:50:49.997Z,13.32
2023-05-09T21:53:16.366Z,14.32
2023-05-09T21:55:42.919Z,15.43
2023-05-09T21:58:09.749Z,15.95
2023-05-09T22:00:36.096Z,15.77
2023-05-09T22:03:02.709Z,17.55
2023-05-09T22:05:29.185Z,16.77
2023-05-09T22:07:55.606Z,17.40
2023-05-09T22:10:22.088Z,16.23
2023-05-09T22:12:48.593Z,15.98
2023-05-09T22:15:14.984Z,16.00
2023-05-09T22:17:41.385Z,15.93
2023-05-09T22:20:07.993Z,16.75
2023-05-09T22:22:34.479Z,15.85
2023-05-09T22:25:00.820Z,16.08
2023-05-09T22:27:27.165Z,14.20
2023-05-09T22:29:53.753Z,14.98
2023-05-09T22:32:20.148Z,14.00
2023-05-09T22:34:47.734Z,13.18
2023-05-09T22:37:14.442Z,14.57
2023-05-09T22:39:40.849Z,13.65
2023-05-09T22:42:09.377Z,13.18
2023-05-09T22:44:35.703Z,13.32
2023-05-09T22:47:02.249Z,13.05
2023-05-09T22:49:28.673Z,13.15
2023-05-09T22:51:55.006Z,13.25
2023-05-09T22:54:22.119Z,12.88
2023-05-09T22:56:48.598Z,15.10
2023-05-09T22:59:14.980Z,13.95
2023-05-09T23:01:41.365Z,14.82
2023-05-09T23:04:08.017Z,15.50
2023-05-09T23:06:34.397Z,15.52
2023-05-09T23:09:00.739Z,14.40
2023-05-09T23:11:27.080Z,15.30
2023-05-09T23:13:53.408Z,15.43
2023-05-09T23:16:19.855Z,15.55
2023-05-09T23:18:46.327Z,15.93
2023-05-09T23:21:12.862Z,16.10
2023-05-09T23:23:39.221Z,15.80
2023-05-09T23:26:05.566Z,16.17
2023-05-09T23:28:31.964Z,15.55
2023-05-09T23:30:58.380Z,16.80
2023-05-09T23:33:24.765Z,16.13
2023-05-09T23:35:51.213Z,16.45
2023-05-09T23:38:17.644Z,16.30
2023-05-09T23:40:45.455Z,15.85
2023-05-09T23:45:38.137Z,16.00
2023-05-09T23:48:04.773Z,15.20
2023-05-09T23:50:31.157Z,15.63
2023-05-09T23:52:57.580Z,15.10
2023-05-09T23:55:23.982Z,14.85
2023-05-09T23:57:50.401Z,15.43
